createdAt,value
2023-03-17T00:02:27.167Z,36.13
2023-03-17T00:05:35.551Z,40.83
2023-03-17T00:08:37.869Z,32.60
2023-03-17T00:11:39.935Z,38.33
2023-03-17T00:14:42.444Z,33.20
2023-03-17T00:17:45.753Z,32.20
2023-03-17T00:20:48.544Z,32.73
2023-03-17T00:23:54.858Z,36.20
2023-03-17T00:26:58.055Z,32.23
2023-03-17T00:30:00.029Z,31.77
2023-03-17T00:33:05.082Z,29.90
2023-03-17T00:36:30.854Z,29.00
2023-03-17T00:39:33.093Z,28.00
2023-03-17T00:42:35.247Z,29.17
2023-03-17T00:45:37.751Z,31.83
2023-03-17T00:48:40.041Z,31.03
2023-03-17T00:51:42.550Z,28.57
2023-03-17T00:54:44.523Z,32.67
2023-03-17T00:57:48.576Z,33.77
2023-03-17T01:00:52.176Z,35.43
2023-03-17T01:03:54.491Z,34.20
2023-03-17T01:06:58.595Z,34.97
2023-03-17T01:10:01.224Z,33.17
2023-03-17T01:13:05.314Z,40.20
2023-03-17T01:16:10.952Z,37.03
2023-03-17T01:19:13.315Z,31.13
2023-03-17T01:22:15.680Z,36.93
2023-03-17T01:25:19.024Z,38.80
2023-03-17T01:28:21.446Z,38.40
2023-03-17T01:31:24.384Z,38.53
2023-03-17T01:34:27.161Z,34.87
2023-03-17T01:37:29.150Z,39.13
2023-03-17T01:40:34.326Z,36.93
2023-03-17T01:43:36.606Z,38.33
2023-03-17T01:46:39.075Z,35.40
2023-03-17T01:49:44.438Z,42.00
2023-03-17T01:52:48.061Z,37.17
2023-03-17T01:55:51.569Z,37.33
2023-03-17T01:58:55.292Z,36.93
2023-03-17T02:02:06.036Z,37.90
2023-03-17T02:05:11.566Z,42.40
2023-03-17T02:08:15.368Z,38.37
2023-03-17T02:11:18.312Z,39.50
2023-03-17T02:14:20.490Z,37.20
2023-03-17T02:17:24.999Z,37.23
2023-03-17T02:20:27.197Z,35.63
2023-03-17T02:23:29.584Z,41.10
2023-03-17T02:26:34.416Z,36.57
2023-03-17T02:29:37.838Z,36.63
2023-03-17T02:32:40.075Z,42.03
2023-03-17T02:35:42.568Z,34.20
2023-03-17T02:38:44.613Z,33.70
2023-03-17T02:41:47.068Z,36.83
2023-03-17T02:44:49.556Z,37.43
2023-03-17T02:47:52.534Z,33.10
2023-03-17T02:50:54.584Z,35.13
2023-03-17T02:53:56.814Z,35.60
2023-03-17T02:56:59.329Z,36.03
2023-03-17T03:00:01.822Z,35.17
2023-03-17T03:03:03.886Z,33.23
2023-03-17T03:06:06.862Z,31.73
2023-03-17T03:09:11.730Z,31.27
2023-03-17T03:12:14.025Z,32.70
2023-03-17T03:15:16.267Z,34.40
2023-03-17T03:18:18.593Z,28.00
2023-03-17T03:21:22.075Z,31.80
2023-03-17T03:24:24.422Z,35.13
2023-03-17T03:27:26.661Z,29.60
2023-03-17T03:30:29.198Z,25.43
2023-03-17T03:33:31.775Z,28.73
2023-03-17T03:36:34.097Z,33.43
2023-03-17T03:39:36.208Z,29.00
2023-03-17T03:42:38.435Z,33.30
2023-03-17T03:45:41.509Z,27.37
2023-03-17T03:48:43.811Z,27.77
2023-03-17T03:51:45.863Z,27.67
2023-03-17T03:54:48.176Z,28.97
2023-03-17T03:57:50.328Z,32.77
2023-03-17T04:00:52.600Z,29.07
2023-03-17T04:03:54.592Z,28.53
2023-03-17T04:06:56.829Z,31.93
2023-03-17T04:09:59.871Z,29.23
2023-03-17T04:13:02.215Z,31.63
2023-03-17T04:16:04.822Z,34.50
2023-03-17T04:19:07.518Z,33.97
2023-03-17T04:22:11.899Z,33.90
2023-03-17T04:25:15.418Z,33.57
2023-03-17T04:28:17.674Z,33.20
2023-03-17T04:31:20.085Z,31.77
2023-03-17T04:34:23.038Z,30.10
2023-03-17T04:37:25.786Z,30.17
2023-03-17T04:40:27.785Z,32.40
2023-03-17T04:43:30.349Z,30.77
2023-03-17T04:46:33.134Z,32.13
2023-03-17T04:49:37.555Z,31.13
2023-03-17T04:52:39.605Z,31.63
2023-03-17T04:55:42.152Z,36.03
2023-03-17T04:58:44.326Z,30.93
2023-03-17T05:01:47.189Z,32.07
2023-03-17T05:04:49.216Z,31.10
2023-03-17T05:07:51.509Z,32.63
2023-03-17T05:10:53.707Z,30.70
2023-03-17T05:13:57.081Z,33.90
2023-03-17T05:16:59.096Z,25.93
2023-03-17T05:20:01.375Z,30.37
2023-03-17T05:23:03.446Z,27.97
2023-03-17T05:26:06.475Z,31.73
2023-03-17T05:29:09.082Z,23.67
2023-03-17T05:32:11.712Z,25.27
2023-03-17T05:35:13.859Z,32.73
2023-03-17T05:38:16.451Z,32.87
2023-03-17T05:41:18.527Z,32.93
2023-03-17T05:44:20.874Z,31.37
2023-03-17T05:47:23.157Z,35.03
2023-03-17T05:50:26.194Z,35.70
2023-03-17T05:53:28.632Z,34.00
2023-03-17T05:56:33.790Z,31.33
2023-03-17T05:59:36.243Z,35.40
2023-03-17T06:02:39.682Z,29.57
2023-03-17T06:05:41.959Z,33.20
2023-03-17T06:08:44.643Z,29.03
2023-03-17T06:11:46.780Z,32.30
2023-03-17T06:14:50.332Z,33.57
2023-03-17T06:17:52.904Z,29.53
2023-03-17T06:20:55.203Z,32.07
2023-03-17T06:23:57.357Z,33.10
2023-03-17T06:26:59.910Z,29.07
2023-03-17T06:30:01.927Z,36.30
2023-03-17T06:33:04.540Z,32.70
2023-03-17T06:36:08.176Z,28.83
2023-03-17T06:39:10.975Z,35.77
2023-03-17T06:42:13.262Z,35.40
2023-03-17T06:45:16.348Z,35.47
2023-03-17T06:48:18.807Z,29.57
2023-03-17T06:51:21.242Z,28.33
2023-03-17T06:54:25.373Z,30.67
2023-03-17T06:57:27.793Z,27.67
2023-03-17T07:00:30.402Z,28.73
2023-03-17T07:03:32.805Z,29.33
2023-03-17T07:06:35.312Z,33.83
2023-03-17T07:09:37.719Z,34.00
2023-03-17T07:12:39.720Z,33.50
2023-03-17T07:15:42.709Z,30.00
2023-03-17T07:18:45.043Z,33.43
2023-03-17T07:21:47.406Z,28.97
2023-03-17T07:24:49.457Z,26.33
2023-03-17T07:27:52.008Z,30.00
2023-03-17T07:30:54.560Z,27.87
2023-03-17T07:33:57.560Z,31.90
2023-03-17T07:36:59.722Z,27.67
2023-03-17T07:40:02.330Z,30.90
2023-03-17T07:43:04.804Z,29.27
2023-03-17T07:46:07.508Z,30.73
2023-03-17T07:49:10.481Z,26.27
2023-03-17T07:52:13.032Z,31.87
2023-03-17T07:55:15.854Z,25.03
2023-03-17T07:58:18.166Z,26.43
2023-03-17T08:01:22.891Z,28.40
2023-03-17T08:04:28.471Z,23.07
2023-03-17T08:07:31.659Z,24.40
2023-03-17T08:10:35.183Z,21.50
2023-03-17T08:13:37.741Z,23.93
2023-03-17T08:16:40.101Z,23.37
2023-03-17T08:19:42.487Z,25.17
2023-03-17T08:22:44.808Z,24.10
2023-03-17T08:25:47.643Z,23.63
2023-03-17T08:28:50.348Z,22.60
2023-03-17T08:31:52.839Z,28.67
2023-03-17T08:34:55.243Z,21.87
2023-03-17T08:37:57.371Z,22.30
2023-03-17T08:41:08.097Z,26.57
2023-03-17T08:44:10.609Z,21.30
2023-03-17T08:47:12.891Z,25.83
2023-03-17T08:50:21.956Z,20.57
2023-03-17T08:53:25.137Z,30.50
2023-03-17T08:56:27.760Z,21.63
2023-03-17T08:59:30.159Z,24.30
2023-03-17T09:02:32.181Z,46.20
2023-03-17T09:05:36.949Z,23.80
2023-03-17T09:08:44.943Z,21.57
2023-03-17T09:11:47.455Z,21.80
2023-03-17T09:14:50.504Z,17.20
2023-03-17T09:17:52.747Z,24.87
2023-03-17T09:20:54.946Z,19.90
2023-03-17T09:23:57.225Z,22.03
2023-03-17T09:27:01.353Z,19.60
2023-03-17T09:30:05.437Z,22.83
2023-03-17T09:33:07.620Z,18.50
2023-03-17T09:36:16.318Z,20.50
2023-03-17T09:39:25.056Z,15.50
2023-03-17T09:42:33.421Z,24.00
2023-03-17T09:45:38.976Z,20.57
2023-03-17T09:48:57.361Z,19.73
2023-03-17T09:52:00.154Z,32.40
2023-03-17T09:55:05.996Z,17.63
2023-03-17T09:58:14.825Z,19.47
2023-03-17T10:01:17.735Z,17.00
2023-03-17T10:04:20.056Z,19.57
2023-03-17T10:08:31.226Z,19.57
2023-03-17T10:11:43.775Z,23.27
2023-03-17T10:14:59.530Z,24.33
2023-03-17T10:18:09.473Z,23.23
2023-03-17T10:21:17.908Z,19.07
2023-03-17T10:24:23.113Z,22.97
2023-03-17T10:27:26.216Z,26.07
2023-03-17T10:30:33.592Z,18.67
2023-03-17T10:33:36.484Z,24.70
2023-03-17T10:36:40.732Z,26.47
2023-03-17T10:39:47.065Z,18.63
2023-03-17T10:43:01.611Z,20.30
2023-03-17T10:46:06.429Z,26.17
2023-03-17T10:49:16.748Z,25.13
2023-03-17T10:52:23.667Z,24.17
2023-03-17T10:55:29.802Z,22.60
2023-03-17T10:58:45.794Z,21.17
2023-03-17T11:01:54.061Z,21.53
2023-03-17T11:05:22.321Z,21.20
2023-03-17T11:08:24.947Z,19.23
2023-03-17T11:11:29.859Z,18.50
2023-03-17T11:14:32.450Z,15.10
2023-03-17T11:17:43.057Z,18.43
2023-03-17T11:20:57.104Z,20.10
2023-03-17T11:24:19.593Z,20.60
2023-03-17T11:27:35.230Z,21.30
2023-03-17T11:30:50.682Z,25.97
2023-03-17T11:34:25.579Z,19.23
2023-03-17T11:37:33.318Z,21.20
2023-03-17T11:40:38.696Z,22.00
2023-03-17T11:44:01.404Z,21.50
2023-03-17T11:47:09.126Z,19.47
2023-03-17T11:50:33.853Z,19.97
2023-03-17T11:53:50.775Z,21.87
2023-03-17T11:56:59.893Z,20.60
2023-03-17T12:00:42.766Z,16.17
2023-03-17T12:04:13.001Z,15.13
2023-03-17T12:07:23.571Z,19.20
2023-03-17T12:10:40.599Z,18.10
2023-03-17T12:14:11.260Z,21.87
2023-03-17T12:17:34.907Z,15.63
2023-03-17T12:28:34.350Z,16.67
2023-03-17T12:31:52.330Z,16.63
2023-03-17T12:35:02.622Z,13.57
2023-03-17T12:38:11.511Z,18.43
2023-03-17T12:41:44.806Z,15.60
2023-03-17T12:45:28.460Z,16.03
2023-03-17T12:48:49.129Z,17.13
2023-03-17T12:51:58.178Z,15.87
2023-03-17T12:55:03.341Z,14.70
2023-03-17T12:58:26.553Z,11.50
2023-03-17T13:01:35.591Z,13.43
2023-03-17T13:04:38.698Z,9.50
2023-03-17T13:07:47.467Z,10.50
2023-03-17T13:10:50.508Z,7.40
2023-03-17T13:14:05.906Z,13.77
2023-03-17T13:17:34.737Z,11.70
2023-03-17T13:20:41.140Z,8.73
2023-03-17T13:24:06.281Z,9.43
2023-03-17T13:27:14.517Z,11.47
2023-03-17T13:30:26.890Z,9.67
2023-03-17T13:33:32.924Z,12.23
2023-03-17T13:36:54.659Z,9.77
2023-03-17T13:40:18.324Z,13.60
2023-03-17T13:43:54.074Z,11.13
2023-03-17T13:47:15.916Z,10.33
2023-03-17T13:50:32.815Z,7.93
2023-03-17T13:53:55.442Z,13.73
2023-03-17T13:57:17.928Z,9.87
2023-03-17T14:00:28.445Z,8.53
2023-03-17T14:03:50.093Z,9.77
2023-03-17T14:06:56.743Z,8.33
2023-03-17T14:10:04.165Z,9.27
2023-03-17T14:13:22.669Z,11.17
2023-03-17T14:16:32.061Z,10.83
2023-03-17T14:19:34.770Z,7.03
2023-03-17T14:22:46.013Z,11.17
2023-03-17T14:25:50.445Z,10.37
2023-03-17T14:28:53.073Z,7.93
2023-03-17T14:32:13.668Z,9.17
2023-03-17T14:35:15.832Z,9.00
2023-03-17T14:38:19.971Z,8.97
2023-03-17T14:41:44.981Z,8.63
2023-03-17T14:45:19.216Z,10.43
2023-03-17T14:48:28.876Z,14.13
2023-03-17T14:51:36.266Z,10.73
2023-03-17T14:54:38.453Z,9.73
2023-03-17T14:57:41.389Z,8.37
2023-03-17T15:00:52.573Z,12.40
2023-03-17T15:03:56.612Z,11.27
2023-03-17T15:07:01.611Z,12.00
2023-03-17T15:10:05.807Z,11.03
2023-03-17T15:13:11.883Z,14.23
2023-03-17T15:16:43.581Z,12.33
2023-03-17T15:19:52.617Z,9.77
2023-03-17T15:23:02.982Z,11.00
2023-03-17T15:26:09.910Z,9.03
2023-03-17T15:29:12.187Z,9.70
2023-03-17T15:32:17.302Z,9.23
2023-03-17T15:35:19.826Z,11.83
2023-03-17T15:38:22.209Z,10.03
2023-03-17T15:41:24.534Z,11.27
2023-03-17T15:44:27.065Z,17.03
2023-03-17T15:47:32.864Z,14.50
2023-03-17T15:50:35.272Z,9.37
2023-03-17T15:53:37.932Z,14.47
2023-03-17T15:56:39.995Z,9.47
2023-03-17T15:59:42.262Z,9.90
2023-03-17T16:02:44.745Z,12.57
2023-03-17T16:05:47.137Z,7.87
2023-03-17T16:08:50.297Z,14.37
2023-03-17T16:11:52.782Z,9.87
2023-03-17T16:14:54.807Z,12.03
2023-03-17T16:18:00.531Z,12.50
2023-03-17T16:21:04.242Z,13.47
2023-03-17T16:24:06.800Z,12.27
2023-03-17T16:27:21.701Z,14.23
2023-03-17T16:30:31.348Z,13.87
2023-03-17T16:33:40.360Z,18.80
2023-03-17T16:36:43.948Z,11.67
2023-03-17T16:39:46.038Z,12.80
2023-03-17T16:42:48.752Z,12.10
2023-03-17T16:45:52.675Z,10.83
2023-03-17T16:48:56.125Z,9.63
2023-03-17T16:51:58.216Z,10.57
2023-03-17T16:55:06.723Z,13.10
2023-03-17T16:58:16.527Z,17.83
2023-03-17T17:01:24.885Z,12.00
2023-03-17T17:04:27.517Z,14.07
2023-03-17T17:07:29.886Z,18.13
2023-03-17T17:10:34.151Z,16.43
2023-03-17T17:13:37.396Z,12.97
2023-03-17T17:16:40.926Z,15.80
2023-03-17T17:19:44.115Z,19.57
2023-03-17T17:22:46.156Z,21.90
2023-03-17T17:25:49.917Z,17.63
2023-03-17T17:28:52.082Z,17.70
2023-03-17T17:31:54.728Z,15.43
2023-03-17T17:34:56.880Z,17.70
2023-03-17T17:37:59.761Z,15.70
2023-03-17T17:41:06.940Z,20.53
2023-03-17T17:44:09.399Z,15.40
2023-03-17T17:47:12.127Z,20.47
2023-03-17T17:50:34.735Z,18.20
2023-03-17T17:53:38.257Z,17.67
2023-03-17T17:56:46.702Z,18.83
2023-03-17T17:59:48.816Z,20.97
2023-03-17T18:02:51.256Z,21.10
2023-03-17T18:05:54.488Z,18.87
2023-03-17T18:08:58.945Z,25.33
2023-03-17T18:12:01.010Z,20.60
2023-03-17T18:15:05.424Z,29.90
2023-03-17T18:18:07.959Z,29.63
2023-03-17T18:21:14.366Z,26.83
2023-03-17T18:24:17.490Z,25.97
2023-03-17T18:27:19.921Z,24.23
2023-03-17T18:30:29.199Z,22.70
2023-03-17T18:33:32.622Z,21.37
2023-03-17T18:36:37.405Z,21.03
2023-03-17T18:39:41.631Z,27.03
2023-03-17T18:42:43.815Z,22.93
2023-03-17T18:45:46.173Z,25.93
2023-03-17T18:48:48.382Z,24.60
2023-03-17T18:51:51.083Z,20.33
2023-03-17T18:54:53.098Z,28.73
2023-03-17T18:57:55.814Z,24.43
2023-03-17T19:01:05.724Z,23.43
2023-03-17T19:04:08.882Z,28.00
2023-03-17T19:07:10.904Z,23.17
2023-03-17T19:10:14.238Z,28.03
2023-03-17T19:13:16.917Z,27.73
2023-03-17T19:16:19.927Z,33.13
2023-03-17T19:19:22.209Z,26.77
2023-03-17T19:22:24.701Z,32.97
2023-03-17T19:25:27.214Z,30.27
2023-03-17T19:28:29.489Z,31.40
2023-03-17T19:31:31.589Z,33.10
2023-03-17T19:34:34.171Z,30.87
2023-03-17T19:37:38.036Z,34.20
2023-03-17T19:40:40.666Z,45.50
2023-03-17T19:43:43.314Z,30.43
2023-03-17T19:46:45.643Z,31.97
2023-03-17T19:49:48.238Z,33.93
2023-03-17T19:52:53.182Z,32.10
2023-03-17T19:55:57.013Z,34.53
2023-03-17T19:59:00.041Z,33.13
2023-03-17T20:02:02.267Z,33.83
2023-03-17T20:05:04.967Z,35.40
2023-03-17T20:08:07.896Z,34.60
2023-03-17T20:11:12.810Z,31.67
2023-03-17T20:14:14.884Z,31.07
2023-03-17T20:17:17.833Z,31.10
2023-03-17T20:20:19.992Z,29.93
2023-03-17T20:23:22.725Z,36.27
2023-03-17T20:26:25.380Z,32.10
2023-03-17T20:29:28.222Z,30.90
2023-03-17T20:32:30.348Z,40.87
2023-03-17T20:35:33.766Z,36.33
2023-03-17T20:38:38.871Z,31.00
2023-03-17T20:41:41.702Z,35.50
2023-03-17T20:44:43.681Z,35.97
2023-03-17T20:47:47.306Z,33.70
2023-03-17T20:50:50.000Z,36.27
2023-03-17T20:53:56.875Z,36.23
2023-03-17T20:56:59.258Z,40.87
2023-03-17T21:00:02.344Z,41.73
2023-03-17T21:03:04.705Z,40.80
2023-03-17T21:06:07.545Z,40.10
2023-03-17T21:09:10.739Z,38.40
2023-03-17T21:12:15.413Z,48.00
2023-03-17T21:15:18.358Z,46.70
2023-03-17T21:18:20.865Z,49.17
2023-03-17T21:21:23.534Z,45.00
2023-03-17T21:24:28.122Z,47.37
2023-03-17T21:27:30.833Z,44.63
2023-03-17T21:30:34.109Z,46.07
2023-03-17T21:33:36.657Z,42.63
2023-03-17T21:36:39.063Z,43.43
2023-03-17T21:39:45.775Z,42.67
2023-03-17T21:42:49.689Z,45.97
2023-03-17T21:45:51.838Z,51.27
2023-03-17T21:48:54.242Z,42.87
2023-03-17T21:51:56.443Z,41.33
2023-03-17T21:54:59.668Z,43.73
2023-03-17T21:58:02.418Z,45.07
2023-03-17T22:01:05.176Z,42.60
2023-03-17T22:04:07.722Z,43.73
2023-03-17T22:07:13.204Z,43.80
2023-03-17T22:10:15.742Z,45.67
2023-03-17T22:13:18.344Z,48.97
2023-03-17T22:16:21.883Z,46.27
2023-03-17T22:19:24.543Z,42.63
2023-03-17T22:22:26.624Z,41.13
2023-03-17T22:25:28.995Z,45.67
2023-03-17T22:28:31.122Z,39.67
2023-03-17T22:31:35.382Z,36.13
2023-03-17T22:34:37.728Z,37.83
2023-03-17T22:37:41.469Z,38.77
2023-03-17T22:40:43.476Z,33.10
2023-03-17T22:43:47.064Z,44.60
2023-03-17T22:46:49.104Z,34.40
2023-03-17T22:49:51.517Z,37.77
2023-03-17T22:52:53.558Z,45.10
2023-03-17T22:55:58.852Z,33.43
2023-03-17T22:59:01.916Z,37.23
2023-03-17T23:02:04.252Z,38.30
2023-03-17T23:05:07.045Z,40.20
2023-03-17T23:08:09.300Z,36.00
2023-03-17T23:11:16.104Z,32.43
2023-03-17T23:14:18.425Z,34.00
2023-03-17T23:17:20.748Z,38.10
2023-03-17T23:20:23.219Z,36.50
2023-03-17T23:23:25.258Z,38.67
2023-03-17T23:26:28.348Z,36.33
2023-03-17T23:29:30.422Z,33.93
2023-03-17T23:32:32.908Z,35.80
2023-03-17T23:35:35.820Z,41.73
2023-03-17T23:38:38.094Z,33.70
2023-03-17T23:41:40.241Z,36.97
2023-03-17T23:44:42.787Z,31.20
2023-03-17T23:47:46.679Z,33.87
2023-03-17T23:50:52.774Z,34.63
2023-03-17T23:53:55.446Z,33.67
2023-03-17T23:56:58.111Z,37.77
